Strona główna
METAR-TAF:

METAR-TAF

Lotnisko :

Albert, Francja

Szerokość geograficzna: 49-58-21N, Długość geograficzna: 002-41-29E, wysokość: 111 m

Aktualna obserwacja pogody

Raport powstał 34 minut temu, godzina 11:30 UTC
Wiatr 4 kt od południe
Temperatura 8°C
Wilgotność 100%
Ciśnienie 1004 hPa
Widzialność: 6000 m
Mało chmury na wysokości 500 ft
Rozproszone chmury na wysokości 3400 ft
Przerywane chmury na wysokości 4600 ft
słaby deszcz

METAR: LFAQ 161130Z AUTO 17004KT 6000 -RA FEW005 SCT034 BKN046 08/08 Q1004 TEMPO 4000 RA OVC005

czas: 13:04 (12:04 UTC)

Prognoza

Raport powstał 1 godzina i 4 minut temu, godzina 11:00 UTC
Prognoza ważna od 16 godzina 12 UTC do 16 godzina 21 UTC
Wiatr 7 kt od południe
Widzialność 10 km lub więcej
Zachmurzenie całkowite na wysokości 4500 ft
Przejściowo
od 16 godzina 12 UTC do 16 godzina 16 UTC
Widzialność: 4000 m
Zachmurzenie całkowite na wysokości 500 ft
deszcz

TAF: LFAQ 161100Z 1612/1621 17007KT 9999 OVC045 TEMPO 1612/1616 4000 RA OVC005

Obserwacja i prognoza pogody dla ponad 4000 lotnisk (raport METAR i TAF).

Dostępne stacje oznaczono żółtymi i czerwonymi punktami na mapie.

Najedź kursorem aby zobaczyć nazwę stacji.

Kliknij aby zobaczyć obserwacje i prognozy pogody.

Aby zmienić mapę: kliknij na zielony przycisk z czarnym krzyżykiem, aby powiększyć; na zielony przycisk z myślnikiem, aby pomniejszyć; na zielone strzałki, aby przejść do map sąsiednich.


METAR-TAF: